• Join FlightAware (Why Join?)
  • Login
  • US Flag 
06:17AM EDT


 

Airport Tracker/Info


-or-


 

Live Flight TrackerFlight Track Log ✈ DAL1550 ✈ 24-Apr-2013 ✈ KLAS - KMSP

Flight Track Log - Related Links

Times and Time Zones

All times are in EDT time to prevent confusion due to time zone crossing. See the DAL1550 flight status page for this flight to view local times or setup timezone preferences in your user account.

Time Position Orientation Groundspeed Altitude Reporting Facility
EDT Latitude Longitude Course Direction KTS MPH feet Rate Location/Type
10:24AM 36.0753 -115.1844 94° East 190 219 3,200  Level Los Angeles Center
10:25AM 36.0819 -115.2753 275° West 241 277 6,100 2,220 Climbing Los Angeles Center
10:25AM 36.1086 -115.2928 332° Northwest 255 293 7,200 2,640 Climbing Los Angeles Center
10:26AM 36.1834 -115.0164 90° East  Level FlightAware Approximate
10:26AM 36.1433 -115.2897 North 241 277 8,800  Level Los Angeles Center
10:26AM 36.1653 -115.2628 45° Northeast 247 284 9,800 1,560 Climbing Los Angeles Center
10:27AM 36.1885 -114.8475 80° East  Level FlightAware Approximate
10:27AM 36.2011 -115.1558 67° East 292 336 11,400  Level Los Angeles Center
10:28AM 36.1946 -114.6795 94° East  Level FlightAware Approximate
10:29AM 36.1840 -114.5105 94° East  Level FlightAware Approximate
10:29AM 36.1956 -115.0308 93° East 357 411 12,600  Level Los Angeles Center
10:30AM 36.1975 -114.8653 89° East 399 459 14,900 1,980 Climbing Los Angeles Center
10:31AM 36.1992 -114.7203 89° East 420 483 16,700 1,680 Climbing Los Angeles Center
10:32AM 36.1969 -114.5675 91° East 439 505 18,400 1,620 Climbing Los Angeles Center
10:33AM 36.1942 -114.4117 91° East 452 520 20,100 1,500 Climbing Los Angeles Center
10:34AM 36.1994 -114.2531 88° East 460 529 21,500 1,320 Climbing Los Angeles Center
10:35AM 36.3042 -114.1050 49° Northeast 480 552 22,900 1,200 Climbing Los Angeles Center
10:36AM 36.3986 -113.9850 46° Northeast 483 556 24,100 1,200 Climbing Los Angeles Center
10:37AM 36.4953 -113.8628 45° Northeast 494 568 25,400 1,140 Climbing Los Angeles Center
10:38AM 36.5994 -113.7300 46° Northeast 500 575 26,500 1,140 Climbing Los Angeles Center
10:39AM 36.6975 -113.6056 45° Northeast 503 579 27,800 1,200 Climbing Los Angeles Center
10:40AM 36.7950 -113.4800 46° Northeast 505 581 29,000 1,200 Climbing Los Angeles Center
10:41AM 36.8919 -113.3561 46° Northeast 501 577 30,300 960 Climbing Los Angeles Center
10:42AM 36.9883 -113.2314 46° Northeast 499 574 31,000 300 Climbing Los Angeles Center
10:43AM 37.0819 -113.1078 46° Northeast 495 570 31,000  Level Los Angeles Center
10:44AM 37.1586 -113.0083 46° Northeast 497 572 31,000  Level Salt Lake Center
10:45AM 37.2925 -112.8347 46° Northeast 498 573 31,000  Level Los Angeles Center
10:46AM 37.3669 -112.7353 47° Northeast 498 573 31,000  Level Salt Lake Center
10:47AM 37.4606 -112.6114 46° Northeast 498 573 31,000  Level Salt Lake Center
10:48AM 37.5544 -112.4864 47° Northeast 499 574 31,000  Level Salt Lake Center
10:49AM 37.6492 -112.3592 47° Northeast 501 577 31,000  Level Salt Lake Center
10:50AM 37.7417 -112.1797 57° Northeast 516 594 31,000  Level Salt Lake Center
10:51AM 37.8069 -112.0200 63° Northeast 516 594 31,000  Level Salt Lake Center
10:52AM 37.8725 -111.8592 63° Northeast 517 595 31,000  Level Salt Lake Center
10:52AM 37.8989 -111.7933 63° Northeast 520 598 31,000  Level Denver Center
10:53AM 37.9381 -111.6969 63° Northeast 519 597 31,000  Level Salt Lake Center
10:54AM 38.0056 -111.5339 62° Northeast 523 602 31,000  Level Salt Lake Center
10:55AM 38.0681 -111.3756 63° Northeast 509 586 31,000  Level Salt Lake Center
10:56AM 38.1433 -111.1850 63° Northeast 505 581 31,000  Level Salt Lake Center
10:57AM 38.2072 -111.0253 63° Northeast 508 585 31,000  Level Salt Lake Center
10:58AM 38.2667 -110.8753 63° Northeast 508 585 31,000  Level Salt Lake Center
10:59AM 38.3383 -110.6947 63° Northeast 511 588 31,000  Level Salt Lake Center
11:00AM 38.3681 -110.6158 64° Northeast 513 590 31,000  Level Denver Center
11:00AM 38.3994 -110.5389 62° Northeast 513 590 31,000  Level Salt Lake Center
11:01AM 38.4292 -110.4594 64° Northeast 515 593 31,000  Level Denver Center
11:01AM 38.4708 -110.3564 63° Northeast 515 593 31,000  Level Salt Lake Center
11:02AM 38.5319 -110.1953 64° Northeast 524 603 31,000  Level Salt Lake Center
11:03AM 38.5619 -110.1139 65° Northeast 526 605 31,000  Level Denver Center
11:04AM 38.6342 -109.9242 64° Northeast 529 609 31,000  Level Denver Center
11:05AM 38.6972 -109.7625 63° Northeast 532 612 31,000  Level Denver Center
11:06AM 38.7583 -109.5983 64° Northeast 535 616 31,000  Level Denver Center
11:07AM 38.8350 -109.4094 62° Northeast 536 617 31,000  Level Denver Center
11:08AM 38.9089 -109.2564 58° Northeast 529 609 31,000  Level Denver Center
11:09AM 38.9972 -109.0797 57° Northeast 526 605 31,000  Level Denver Center
11:10AM 39.0717 -108.9258 58° Northeast 530 610 31,000  Level Denver Center
11:11AM 39.1592 -108.7467 58° Northeast 533 613 31,000  Level Denver Center
11:12AM 39.2342 -108.5925 58° Northeast 534 615 31,000  Level Denver Center
11:13AM 39.3203 -108.4125 58° Northeast 533 613 31,000  Level Denver Center
11:14AM 39.3947 -108.2561 58° Northeast 535 616 31,000  Level Denver Center
11:15AM 39.4811 -108.0747 58° Northeast 534 615 31,000  Level Denver Center
11:16AM 39.5686 -107.8928 58° Northeast 533 613 31,000  Level Denver Center
11:17AM 39.6414 -107.7367 59° Northeast 532 612 31,000  Level Denver Center
11:18AM 39.7158 -107.5775 59° Northeast 537 618 31,000  Level Denver Center
11:19AM 39.8017 -107.3936 59° Northeast 535 616 31,000  Level Denver Center
11:20AM 39.8742 -107.2361 59° Northeast 532 612 31,000  Level Denver Center
11:21AM 39.9589 -107.0536 59° Northeast 529 609 31,000  Level Denver Center
11:22AM 40.0322 -106.8964 59° Northeast 530 610 31,000  Level Denver Center
11:24AM 40.1164 -106.7111 59° Northeast 532 612 31,000  Level Denver Center
11:25AM 40.1889 -106.5528 59° Northeast 531 611 31,000  Level Denver Center
11:26AM 40.2711 -106.3697 59° Northeast 522 601 31,000  Level Denver Center
11:27AM 40.3411 -106.2139 59° Northeast 522 601 31,000  Level Denver Center
11:28AM 40.4225 -106.0308 60° Northeast 517 595 31,000  Level Denver Center
11:29AM 40.4928 -105.8681 60° Northeast 508 585 31,000  Level Denver Center
11:30AM 40.5642 -105.7061 60° Northeast 507 583 31,000  Level Denver Center
11:31AM 40.6367 -105.5411 60° Northeast 511 588 31,000  Level Denver Center
11:32AM 40.7075 -105.3769 60° Northeast 508 585 31,000  Level Denver Center
11:33AM 40.7783 -105.2136 60° Northeast 504 580 31,000  Level Denver Center
11:34AM 40.8486 -105.0494 60° Northeast 507 583 31,000  Level Denver Center
11:35AM 40.9314 -104.8597 60° Northeast 506 582 31,000  Level Denver Center
11:36AM 41.0019 -104.6961 60° Northeast 502 578 31,000  Level Denver Center
11:37AM 41.0744 -104.5206 61° Northeast 516 594 31,000  Level Denver Center
11:38AM 41.1397 -104.3681 60° Northeast 503 579 31,000  Level Denver Center
11:39AM 41.2156 -104.1889 61° Northeast 500 575 31,000  Level Denver Center
11:40AM 41.2794 -104.0336 61° Northeast 501 577 31,000  Level Denver Center
11:41AM 41.3539 -103.8558 61° Northeast 495 570 31,000  Level Denver Center
11:42AM 41.4183 -103.7008 61° Northeast 498 573 31,000  Level Denver Center
11:43AM 41.4900 -103.5231 62° Northeast 491 565 31,000  Level Denver Center
11:44AM 41.5536 -103.3706 61° Northeast 492 566 31,000  Level Denver Center
11:45AM 41.6150 -103.2194 61° Northeast 487 560 31,000  Level Denver Center
11:46AM 41.6869 -103.0411 62° Northeast 489 563 31,000  Level Denver Center
11:47AM 41.7489 -102.8872 62° Northeast 491 565 31,000  Level Denver Center
11:48AM 41.8217 -102.7058 62° Northeast 495 570 31,000  Level Denver Center
11:50AM 41.8842 -102.5492 62° Northeast 499 574 31,000  Level Denver Center
11:51AM 41.9669 -102.3392 62° Northeast 501 577 31,000  Level Denver Center
11:52AM 42.0369 -102.1603 62° Northeast 498 573 31,000  Level Denver Center
11:53AM 42.0972 -102.0058 62° Northeast 490 564 31,000  Level Denver Center
11:54AM 42.1692 -101.8239 62° Northeast 490 564 31,000  Level Denver Center
11:55AM 42.2286 -101.6667 63° Northeast 489 563 31,000  Level Denver Center
11:56AM 42.2981 -101.4844 63° Northeast 488 562 31,000  Level Denver Center
11:57AM 42.3592 -101.3269 62° Northeast 492 566 31,000  Level Denver Center
11:58AM 42.4275 -101.1444 63° Northeast 489 563 31,000  Level Denver Center
11:59AM 42.4956 -100.9631 63° Northeast 486 559 31,000  Level Denver Center
12:00PM 42.5633 -100.7803 63° Northeast 484 557 31,000  Level Denver Center
12:01PM 42.6217 -100.6222 63° Northeast 487 560 31,000  Level Denver Center
12:02PM 42.6889 -100.4400 63° Northeast 484 557 31,000  Level Denver Center
12:03PM 42.7433 -100.2917 63° Northeast 486 559 31,000  Level Denver Center
12:04PM 42.8025 -100.1258 64° Northeast 489 563 31,000  Level Denver Center
12:05PM 42.8742 -99.9322 63° Northeast 482 555 31,000  Level Denver Center
12:06PM 42.9214 -99.7989 64° Northeast 484 557 31,000  Level Minneapolis Center
12:07PM 42.9797 -99.6350 64° Northeast 479 551 31,000  Level Minneapolis Center
12:08PM 43.0397 -99.4744 63° Northeast 474 545 31,000  Level Minneapolis Center
12:09PM 43.0992 -99.3100 64° Northeast 479 551 31,000  Level Minneapolis Center
12:11PM 43.2175 -98.9758 64° Northeast 480 552 31,000  Level Minneapolis Center
12:12PM 43.2742 -98.8075 65° Northeast 486 559 31,000  Level Minneapolis Center
12:13PM 43.3308 -98.6417 65° Northeast 482 555 31,000  Level Minneapolis Center
12:14PM 43.4008 -98.4411 64° Northeast 485 558 31,000  Level Minneapolis Center
12:16PM 43.4581 -98.2728 65° Northeast 487 560 31,000  Level Minneapolis Center
12:17PM 43.5272 -98.0694 65° Northeast 489 563 31,000  Level Minneapolis Center
12:18PM 43.5850 -97.9011 65° Northeast 488 562 31,000  Level Minneapolis Center
12:19PM 43.6428 -97.7322 65° Northeast 488 562 31,000  Level Minneapolis Center
12:20PM 43.7006 -97.5631 65° Northeast 489 563 31,000  Level Minneapolis Center
12:21PM 43.8242 -97.4325 37° Northeast 466 536 31,000  Level Minneapolis Center
12:22PM 43.9314 -97.3350 33° Northeast 460 529 31,000  Level Minneapolis Center
12:23PM 44.0397 -97.2383 33° Northeast 462 532 31,000  Level Minneapolis Center
12:24PM 44.1094 -97.0861 57° Northeast 481 554 31,000  Level Minneapolis Center
12:25PM 44.1431 -96.9061 75° East 482 555 31,000  Level Minneapolis Center
12:26PM 44.1764 -96.7342 75° East 465 535 31,000  Level Minneapolis Center
12:27PM 44.2086 -96.5594 76° East 465 535 31,000  Level Minneapolis Center
12:28PM 44.2489 -96.3464 75° East 469 540 31,000  Level Minneapolis Center
12:29PM 44.2753 -96.2011 76° East 466 536 31,000  Level Minneapolis Center
12:30PM 44.3175 -95.9864 75° East 469 540 31,000  Level Minneapolis Center
12:31PM 44.3494 -95.8075 76° East 474 545 31,000 -780 Level Minneapolis Center
12:32PM 44.3808 -95.6306 76° East 471 542 29,500 -1,800 Descending Minneapolis Center
12:33PM 44.4114 -95.4622 76° East 453 521 27,300 -2,100 Descending Minneapolis Center
12:34PM 44.4383 -95.2967 77° East 441 507 25,200 -2,040 Descending Minneapolis Center
12:35PM 44.4664 -95.1400 76° East 421 484 23,200 -2,100 Descending Minneapolis Center
12:36PM 44.5064 -94.9633 72° East 401 461 20,900 -2,100 Descending Minneapolis Center
12:37PM 44.5408 -94.8208 71° East 391 450 18,900 -2,040 Descending Minneapolis Center
12:38PM 44.5731 -94.6819 72° East 381 438 16,700 -2,040 Descending Minneapolis Center
12:39PM 44.6014 -94.5581 72° East 372 428 14,800 -2,340 Descending Minneapolis Center
12:40PM 44.6258 -94.4767 67° East 363 418 13,300 -2,700 Descending FAA TRACON SMA TRACON (SMA)
12:40PM 44.6347 -94.4350 73° East 362 417 12,700 -1,980 Descending FAA TRACON SMA TRACON (SMA)
12:40PM 44.6433 -94.3939 74° East 358 412 12,000 -2,100 Descending FAA TRACON SMA TRACON (SMA)
12:41PM 44.6542 -94.3433 73° East 353 406 11,300 -1,500 Descending FAA TRACON SMA TRACON (SMA)
12:41PM 44.6628 -94.3031 73° East 351 404 11,000 -480 Descending FAA TRACON SMA TRACON (SMA)
12:41PM 44.6711 -94.2631 74° East 347 399 11,000 -180 Level FAA TRACON SMA TRACON (SMA)
12:42PM 44.6831 -94.2139 71° East 346 398 10,900 -180 Descending FAA TRACON SMA TRACON (SMA)
12:42PM 44.6922 -94.1744 72° East 347 399 10,900 120 Level FAA TRACON SMA TRACON (SMA)
12:42PM 44.7025 -94.1353 70° East 346 398 11,000  Climbing FAA TRACON SMA TRACON (SMA)
12:43PM 44.7119 -94.0961 71° East 345 397 10,900 -180 Descending FAA TRACON SMA TRACON (SMA)
12:43PM 44.7231 -94.0461 73° East 346 398 10,900  Level FAA TRACON SMA TRACON (SMA)
12:43PM 44.7314 -94.0061 74° East 347 399 10,900  Level FAA TRACON SMA TRACON (SMA)
12:44PM 44.7425 -93.9564 73° East 348 400 10,900  Level FAA TRACON SMA TRACON (SMA)
12:44PM 44.7506 -93.9161 74° East 347 399 10,900  Level FAA TRACON SMA TRACON (SMA)
12:44PM 44.7589 -93.8758 74° East 347 399 10,900  Level FAA TRACON SMA TRACON (SMA)
12:45PM 44.7697 -93.8258 73° East 349 402 10,900  Level FAA TRACON SMA TRACON (SMA)
12:45PM 44.7792 -93.7856 72° East 349 402 10,900  Level FAA TRACON SMA TRACON (SMA)
12:45PM 44.7897 -93.7356 73° East 349 402 10,900  Level FAA TRACON SMA TRACON (SMA)
12:46PM 44.7958 -93.7053 74° East 348 400 10,900  Level FAA TRACON SMA TRACON (SMA)
12:46PM 44.8069 -93.6547 73° East 349 402 10,900  Level FAA TRACON SMA TRACON (SMA)
12:46PM 44.8156 -93.6150 73° East 348 400 10,900  Level FAA TRACON SMA TRACON (SMA)
12:47PM 44.8244 -93.5753 72° East 347 399 10,900 -300 Level FAA TRACON SMA TRACON (SMA)
12:47PM 44.8350 -93.5278 73° East 334 384 10,700 -600 Descending FAA TRACON SMA TRACON (SMA)
12:47PM 44.8431 -93.4906 73° East 324 373 10,500 -1,080 Descending FAA TRACON SMA TRACON (SMA)
12:48PM 44.8511 -93.4544 73° East 316 364 10,000 -1,800 Descending FAA TRACON SMA TRACON (SMA)
12:48PM 44.8617 -93.4100 71° East 310 357 9,300 -1,800 Descending FAA TRACON SMA TRACON (SMA)
12:48PM 44.8694 -93.3753 72° East 304 350 8,800 -1,740 Descending FAA TRACON SMA TRACON (SMA)
12:49PM 44.8681 -93.3406 93° East 301 346 8,200 -1,380 Descending FAA TRACON SMA TRACON (SMA)
12:49PM 44.8486 -93.3086 131° Southeast 289 333 7,900 -480 Descending FAA TRACON SMA TRACON (SMA)
12:49PM 44.8283 -93.2994 162° South 264 304 7,900  Level FAA TRACON SMA TRACON (SMA)
12:50PM 44.8042 -93.2911 166° South 235 270 7,900  Level FAA TRACON SMA TRACON (SMA)
12:50PM 44.7847 -93.2850 167° South 230 265 7,900 -180 Level FAA TRACON SMA TRACON (SMA)
12:50PM 44.7653 -93.2825 175° South 227 261 7,800 -480 Descending FAA TRACON SMA TRACON (SMA)
12:51PM 44.7458 -93.2817 178° South 227 261 7,600 -600 Descending FAA TRACON SMA TRACON (SMA)
12:51PM 44.7214 -93.2797 177° South 227 261 7,400 -600 Descending FAA TRACON SMA TRACON (SMA)
12:51PM 44.7022 -93.2792 179° South 225 259 7,200 -780 Descending FAA TRACON SMA TRACON (SMA)
12:52PM 44.6800 -93.2769 176° South 213 245 6,900 -900 Descending FAA TRACON SMA TRACON (SMA)
12:52PM 44.6644 -93.2689 160° South 205 236 6,600 -900 Descending FAA TRACON SMA TRACON (SMA)
12:52PM 44.6567 -93.2475 117° Southeast 214 246 6,300 -1,080 Descending FAA TRACON SMA TRACON (SMA)
12:53PM 44.6622 -93.2239 72° East 221 254 5,900 -1,800 Descending FAA TRACON SMA TRACON (SMA)
12:53PM 44.6806 -93.2078 32° Northeast 210 242 5,100 -2,400 Descending FAA TRACON SMA TRACON (SMA)
12:53PM 44.6967 -93.1956 28° Northeast 212 244 4,300 -2,400 Descending FAA TRACON SMA TRACON (SMA)